createdAt,value
2023-01-19T00:00:53.557Z,20.08
2023-01-19T00:03:20.642Z,20.63
2023-01-19T00:05:47.843Z,22.05
2023-01-19T00:08:15.191Z,25.67
2023-01-19T00:10:47.639Z,28.20
2023-01-19T00:13:15.565Z,27.77
2023-01-19T00:15:43.337Z,26.35
2023-01-19T00:18:11.105Z,27.52
2023-01-19T00:20:39.240Z,27.02
2023-01-19T00:23:08.296Z,26.10
2023-01-19T00:25:36.080Z,27.25
2023-01-19T00:28:03.142Z,26.83
2023-01-19T00:30:30.698Z,25.30
2023-01-19T00:32:57.943Z,24.75
2023-01-19T00:35:25.478Z,25.88
2023-01-19T00:37:52.393Z,25.98
2023-01-19T00:40:19.582Z,25.95
2023-01-19T00:42:48.532Z,25.52
2023-01-19T00:45:19.009Z,26.10
2023-01-19T00:47:47.077Z,26.00
2023-01-19T00:50:16.820Z,27.83
2023-01-19T00:52:44.762Z,31.27
2023-01-19T00:55:13.655Z,32.00
2023-01-19T00:57:41.474Z,31.20
2023-01-19T01:00:13.718Z,28.27
2023-01-19T01:02:41.785Z,29.67
2023-01-19T01:05:09.506Z,31.20
2023-01-19T01:07:41.432Z,29.95
2023-01-19T01:10:09.484Z,29.55
2023-01-19T01:12:37.357Z,28.45
2023-01-19T01:15:06.795Z,27.90
2023-01-19T01:17:34.082Z,26.25
2023-01-19T01:20:01.181Z,27.52
2023-01-19T01:22:28.105Z,28.95
2023-01-19T01:24:55.131Z,28.88
2023-01-19T01:27:22.280Z,38.30
2023-01-19T01:29:49.337Z,43.53
2023-01-19T01:32:17.421Z,37.42
2023-01-19T01:34:44.360Z,34.67
2023-01-19T01:37:11.498Z,27.75
2023-01-19T01:39:38.408Z,26.10
2023-01-19T01:42:16.598Z,26.75
2023-01-19T01:44:50.058Z,25.40
2023-01-19T01:47:43.398Z,26.02
2023-01-19T01:50:13.213Z,27.15
2023-01-19T01:53:05.829Z,24.40
2023-01-19T01:55:47.090Z,26.73
2023-01-19T01:58:15.235Z,24.08
2023-01-19T02:01:17.959Z,25.52
2023-01-19T02:03:45.181Z,22.55
2023-01-19T02:06:12.512Z,22.20
2023-01-19T02:09:02.719Z,19.83
2023-01-19T02:11:48.658Z,20.35
2023-01-19T02:14:15.753Z,19.33
2023-01-19T02:16:42.958Z,18.60
2023-01-19T02:19:14.496Z,18.92
2023-01-19T02:21:53.001Z,18.33
2023-01-19T02:24:20.225Z,18.02
2023-01-19T02:26:47.953Z,17.05
2023-01-19T02:29:17.875Z,18.92
2023-01-19T02:31:48.075Z,18.13
2023-01-19T02:34:18.282Z,18.08
2023-01-19T02:37:06.951Z,17.55
2023-01-19T02:39:40.996Z,16.23
2023-01-19T02:42:12.640Z,17.15
2023-01-19T02:44:41.143Z,17.73
2023-01-19T02:47:08.173Z,16.63
2023-01-19T02:49:36.409Z,17.30
2023-01-19T02:52:04.393Z,16.23
2023-01-19T02:54:46.518Z,17.45
2023-01-19T02:57:19.035Z,16.27
2023-01-19T02:59:52.282Z,14.73
2023-01-19T03:02:30.419Z,13.40
2023-01-19T03:05:34.996Z,13.52
2023-01-19T03:08:33.038Z,14.13
2023-01-19T03:11:06.221Z,13.52
2023-01-19T03:13:59.399Z,14.38
2023-01-19T03:16:42.236Z,13.63
2023-01-19T03:21:39.972Z,13.85
2023-01-19T03:24:08.676Z,13.15
2023-01-19T03:26:44.137Z,15.10
2023-01-19T03:29:13.060Z,16.35
2023-01-19T03:31:42.176Z,16.42
2023-01-19T03:34:12.193Z,17.08
2023-01-19T03:36:49.139Z,16.73
2023-01-19T03:39:22.888Z,15.13
2023-01-19T03:41:52.952Z,16.50
2023-01-19T03:44:20.015Z,15.48
2023-01-19T03:46:48.121Z,17.13
2023-01-19T03:49:15.035Z,16.30
2023-01-19T03:51:42.164Z,16.55
2023-01-19T03:54:10.574Z,16.58
2023-01-19T03:56:37.817Z,16.25
2023-01-19T03:59:06.047Z,16.40
2023-01-19T04:01:33.081Z,15.75
2023-01-19T04:04:00.127Z,15.85
2023-01-19T04:06:28.035Z,16.67
2023-01-19T04:08:55.080Z,15.95
2023-01-19T04:11:22.059Z,16.50
2023-01-19T04:13:49.201Z,16.05
2023-01-19T04:16:20.243Z,16.73
2023-01-19T04:18:47.478Z,17.17
2023-01-19T04:21:14.832Z,16.52
2023-01-19T04:23:41.958Z,17.73
2023-01-19T04:26:09.364Z,17.75
2023-01-19T04:28:39.712Z,17.95
2023-01-19T04:31:08.695Z,17.05
2023-01-19T04:33:35.596Z,17.13
2023-01-19T04:36:03.348Z,16.73
2023-01-19T04:38:30.195Z,15.27
2023-01-19T04:40:57.196Z,16.13
2023-01-19T04:43:24.545Z,15.80
2023-01-19T04:45:51.620Z,15.60
2023-01-19T04:48:19.161Z,16.42
2023-01-19T04:50:46.955Z,16.83
2023-01-19T04:53:14.678Z,15.70
2023-01-19T04:55:41.768Z,15.60
2023-01-19T04:58:08.754Z,15.20
2023-01-19T05:00:36.274Z,15.77
2023-01-19T05:03:04.936Z,15.52
2023-01-19T05:05:33.199Z,15.85
2023-01-19T05:08:00.715Z,15.25
2023-01-19T05:10:27.703Z,15.45
2023-01-19T05:12:55.108Z,14.90
2023-01-19T05:15:22.264Z,17.08
2023-01-19T05:17:49.760Z,19.25
2023-01-19T05:20:17.602Z,19.95
2023-01-19T05:22:51.314Z,18.10
2023-01-19T05:25:18.846Z,20.65
2023-01-19T05:27:45.842Z,20.00
2023-01-19T05:30:13.993Z,19.25
2023-01-19T05:32:41.082Z,20.35
2023-01-19T05:35:08.874Z,21.33
2023-01-19T05:37:35.844Z,20.10
2023-01-19T05:40:03.005Z,21.25
2023-01-19T05:42:32.020Z,20.02
2023-01-19T05:44:59.855Z,19.50
2023-01-19T05:47:26.927Z,19.42
2023-01-19T05:49:53.973Z,22.17
2023-01-19T05:52:21.964Z,23.42
2023-01-19T05:54:49.136Z,21.95
2023-01-19T05:57:16.134Z,23.25
2023-01-19T05:59:43.115Z,27.23
2023-01-19T06:02:10.165Z,23.27
2023-01-19T06:04:37.195Z,20.95
2023-01-19T06:07:05.459Z,19.70
2023-01-19T06:09:33.089Z,19.25
2023-01-19T06:12:00.117Z,20.85
2023-01-19T06:14:27.036Z,23.00
2023-01-19T06:16:54.236Z,25.30
2023-01-19T06:19:21.213Z,26.45
2023-01-19T06:21:52.247Z,28.60
2023-01-19T06:24:19.819Z,26.67
2023-01-19T06:26:47.060Z,24.92
2023-01-19T06:29:14.700Z,23.50
2023-01-19T06:31:42.491Z,21.50
2023-01-19T06:34:10.234Z,20.67
2023-01-19T06:36:37.305Z,24.65
2023-01-19T06:39:06.103Z,25.08
2023-01-19T06:41:34.138Z,24.05
2023-01-19T06:44:01.505Z,24.30
2023-01-19T06:46:28.683Z,24.90
2023-01-19T06:48:55.790Z,25.48
2023-01-19T06:51:22.967Z,26.83
2023-01-19T06:53:50.455Z,25.02
2023-01-19T06:56:17.373Z,25.40
2023-01-19T06:58:46.595Z,26.63
2023-01-19T07:01:13.791Z,27.33
2023-01-19T07:03:40.987Z,28.38
2023-01-19T07:06:08.574Z,28.58
2023-01-19T07:08:36.857Z,29.40
2023-01-19T07:11:25.493Z,30.63
2023-01-19T07:13:54.818Z,33.30
2023-01-19T07:16:22.076Z,29.73
2023-01-19T07:18:50.126Z,28.77
2023-01-19T07:21:17.150Z,26.85
2023-01-19T07:23:44.179Z,27.35
2023-01-19T07:26:11.331Z,27.25
2023-01-19T07:28:38.338Z,83.28
2023-01-19T07:31:05.731Z,68.13
2023-01-19T07:33:33.200Z,73.45
2023-01-19T07:36:00.193Z,48.78
2023-01-19T07:38:27.274Z,32.35
2023-01-19T07:41:07.073Z,29.70
2023-01-19T07:43:34.735Z,26.88
2023-01-19T07:46:04.285Z,24.45
2023-01-19T07:48:31.479Z,29.27
2023-01-19T07:51:19.151Z,30.83
2023-01-19T07:53:46.358Z,27.30
2023-01-19T07:56:13.391Z,24.17
2023-01-19T07:58:40.652Z,20.98
2023-01-19T08:01:09.860Z,21.83
2023-01-19T08:03:37.623Z,22.10
2023-01-19T08:06:05.337Z,21.30
2023-01-19T08:08:33.275Z,22.73
2023-01-19T08:11:00.637Z,23.02
2023-01-19T08:13:28.088Z,24.00
2023-01-19T08:15:55.206Z,23.77
2023-01-19T08:18:22.319Z,24.00
2023-01-19T08:20:49.284Z,27.08
2023-01-19T08:23:18.317Z,27.58
2023-01-19T08:25:46.075Z,29.48
2023-01-19T08:28:15.221Z,30.75
2023-01-19T08:30:44.550Z,45.35
2023-01-19T08:33:12.723Z,49.47
2023-01-19T08:35:43.784Z,54.20
2023-01-19T08:38:11.263Z,53.30
2023-01-19T08:40:39.776Z,39.00
2023-01-19T08:43:08.990Z,27.88
2023-01-19T08:45:37.190Z,29.20
2023-01-19T08:48:06.550Z,29.60
2023-01-19T08:50:34.566Z,27.02
2023-01-19T08:53:03.606Z,25.40
2023-01-19T08:55:30.839Z,23.40
2023-01-19T08:58:00.292Z,23.20
2023-01-19T09:00:28.117Z,26.55
2023-01-19T09:02:56.718Z,34.13
2023-01-19T09:05:24.351Z,34.90
2023-01-19T09:07:51.850Z,27.88
2023-01-19T09:10:19.602Z,25.85
2023-01-19T09:12:46.912Z,26.45
2023-01-19T09:15:16.732Z,30.73
2023-01-19T09:17:43.754Z,34.13
2023-01-19T09:20:11.191Z,31.33
2023-01-19T09:22:39.799Z,29.52
2023-01-19T09:25:08.239Z,25.00
2023-01-19T09:27:35.433Z,25.33
2023-01-19T09:30:03.755Z,20.70
2023-01-19T09:32:30.952Z,21.15
2023-01-19T09:34:58.073Z,20.55
2023-01-19T09:37:25.218Z,20.23
2023-01-19T09:39:52.200Z,17.23
2023-01-19T09:42:44.863Z,18.02
2023-01-19T09:45:36.152Z,23.80
2023-01-19T09:48:06.331Z,13.75
2023-01-19T09:50:36.692Z,18.75
2023-01-19T09:53:47.061Z,17.55
2023-01-19T09:56:15.515Z,21.60
2023-01-19T09:58:42.553Z,19.60
2023-01-19T10:01:44.793Z,20.08
2023-01-19T10:10:04.177Z,15.18
2023-01-19T10:12:38.073Z,15.70
2023-01-19T10:15:23.078Z,16.90
2023-01-19T10:18:04.635Z,14.80
2023-01-19T10:20:41.737Z,13.25
2023-01-19T10:23:36.241Z,14.48
2023-01-19T10:26:28.289Z,14.57
2023-01-19T10:28:58.863Z,13.60
2023-01-19T10:31:26.221Z,11.93
2023-01-19T10:33:54.274Z,9.55
2023-01-19T10:36:37.597Z,9.85
2023-01-19T10:39:05.894Z,9.95
2023-01-19T10:41:41.093Z,10.32
2023-01-19T10:44:10.790Z,9.55
2023-01-19T10:46:49.587Z,9.10
2023-01-19T10:49:30.132Z,8.77
2023-01-19T10:51:58.843Z,8.10
2023-01-19T10:54:27.297Z,8.13
2023-01-19T10:56:59.829Z,8.60
2023-01-19T10:59:36.440Z,7.65
2023-01-19T11:02:20.595Z,7.53
2023-01-19T11:04:53.339Z,7.15
2023-01-19T11:07:26.498Z,6.45
2023-01-19T11:10:17.780Z,5.28
2023-01-19T11:13:04.731Z,4.07
2023-01-19T11:15:35.816Z,4.32
2023-01-19T11:18:04.851Z,3.63
2023-01-19T11:20:52.798Z,3.53
2023-01-19T11:23:27.551Z,4.28
2023-01-19T11:25:57.871Z,4.10
2023-01-19T11:28:43.571Z,4.32
2023-01-19T11:31:11.962Z,4.18
2023-01-19T11:33:50.945Z,3.70
2023-01-19T11:36:36.955Z,3.97
2023-01-19T11:39:24.498Z,4.03
2023-01-19T11:41:55.036Z,3.80
2023-01-19T11:44:30.201Z,4.40
2023-01-19T11:47:00.141Z,5.07
2023-01-19T11:49:44.913Z,5.07
2023-01-19T11:52:33.257Z,4.45
2023-01-19T11:55:25.472Z,4.32
2023-01-19T12:00:35.825Z,2.67
2023-01-19T12:03:32.019Z,2.45
2023-01-19T12:06:06.013Z,3.08
2023-01-19T12:08:39.980Z,2.70
2023-01-19T12:11:10.340Z,3.25
2023-01-19T12:13:37.711Z,3.53
2023-01-19T12:16:08.610Z,2.88
2023-01-19T12:18:45.174Z,2.83
2023-01-19T12:21:12.375Z,2.67
2023-01-19T12:24:01.512Z,2.80
2023-01-19T12:26:33.350Z,3.00
2023-01-19T12:31:28.911Z,2.97
2023-01-19T12:33:56.676Z,2.90
2023-01-19T12:36:26.713Z,3.03
2023-01-19T12:38:56.133Z,3.15
2023-01-19T12:41:35.834Z,3.30
2023-01-19T12:44:20.699Z,3.80
2023-01-19T12:46:47.733Z,3.53
2023-01-19T12:49:30.997Z,3.40
2023-01-19T12:52:22.551Z,3.20
2023-01-19T12:54:57.014Z,3.17
2023-01-19T12:57:41.094Z,3.55
2023-01-19T13:00:26.771Z,3.85
2023-01-19T13:03:01.622Z,4.05
2023-01-19T13:05:33.198Z,4.60
2023-01-19T13:11:13.138Z,5.20
2023-01-19T13:13:43.890Z,6.07
2023-01-19T13:16:25.075Z,5.25
2023-01-19T13:18:55.290Z,5.22
2023-01-19T13:21:30.768Z,5.95
2023-01-19T13:24:06.011Z,4.80
2023-01-19T13:26:41.331Z,4.95
2023-01-19T13:29:13.970Z,4.45
2023-01-19T13:31:43.086Z,4.78
2023-01-19T13:34:16.923Z,5.80
2023-01-19T13:36:54.448Z,5.65
2023-01-19T13:39:35.071Z,4.75
2023-01-19T13:42:05.251Z,5.20
2023-01-19T13:44:37.339Z,6.30
2023-01-19T13:47:04.981Z,5.82
2023-01-19T13:49:35.990Z,5.93
2023-01-19T13:52:25.619Z,6.80
2023-01-19T13:54:53.943Z,5.13
2023-01-19T13:57:26.681Z,4.60
2023-01-19T14:00:12.937Z,7.50
2023-01-19T14:02:59.896Z,11.02
2023-01-19T14:05:35.380Z,13.15
2023-01-19T14:08:22.773Z,11.32
2023-01-19T14:10:52.523Z,6.35
2023-01-19T14:13:26.016Z,7.90
2023-01-19T14:15:56.330Z,5.00
2023-01-19T14:18:28.028Z,5.13
2023-01-19T14:21:02.299Z,5.75
2023-01-19T14:23:48.919Z,6.65
2023-01-19T14:26:37.718Z,8.93
2023-01-19T14:29:26.258Z,12.70
2023-01-19T14:32:24.859Z,7.28
2023-01-19T14:35:12.590Z,7.05
2023-01-19T14:37:49.903Z,9.95
2023-01-19T14:40:22.221Z,15.82
2023-01-19T14:43:09.037Z,7.65
2023-01-19T14:45:43.234Z,11.27
2023-01-19T14:48:22.709Z,9.50
2023-01-19T14:51:02.951Z,10.05
2023-01-19T14:53:37.143Z,8.55
2023-01-19T14:56:05.808Z,8.45
2023-01-19T14:58:35.252Z,9.57
2023-01-19T15:01:02.784Z,9.10
2023-01-19T15:03:44.659Z,7.55
2023-01-19T15:06:21.811Z,7.72
2023-01-19T15:08:50.456Z,8.27
2023-01-19T15:11:35.885Z,8.40
2023-01-19T15:14:02.858Z,9.13
2023-01-19T15:16:32.364Z,11.23
2023-01-19T15:18:59.646Z,11.95
2023-01-19T15:21:26.999Z,12.63
2023-01-19T15:23:54.810Z,14.10
2023-01-19T15:26:23.748Z,18.75
2023-01-19T15:28:51.204Z,21.27
2023-01-19T15:31:21.905Z,24.23
2023-01-19T15:33:49.592Z,27.05
2023-01-19T15:36:21.581Z,26.50
2023-01-19T15:38:51.466Z,25.50
2023-01-19T15:41:18.847Z,25.85
2023-01-19T15:43:45.781Z,25.15
2023-01-19T15:46:15.911Z,23.85
2023-01-19T15:48:43.130Z,24.75
2023-01-19T15:51:14.324Z,25.88
2023-01-19T15:53:42.106Z,23.25
2023-01-19T15:56:35.543Z,22.17
2023-01-19T15:59:02.798Z,20.63
2023-01-19T16:01:34.014Z,19.58
2023-01-19T16:04:03.442Z,19.85
2023-01-19T16:06:31.401Z,21.42
2023-01-19T16:09:02.081Z,21.98
2023-01-19T16:11:31.339Z,24.02
2023-01-19T16:13:58.803Z,24.35
2023-01-19T16:16:28.088Z,24.70
2023-01-19T16:18:55.991Z,24.73
2023-01-19T16:21:23.998Z,26.48
2023-01-19T16:23:51.505Z,26.40
2023-01-19T16:26:34.607Z,24.63
2023-01-19T16:29:08.981Z,27.90
2023-01-19T16:31:40.199Z,26.80
2023-01-19T16:34:08.411Z,26.33
2023-01-19T16:36:37.700Z,27.20
2023-01-19T16:39:06.947Z,29.63
2023-01-19T16:41:35.171Z,32.13
2023-01-19T16:44:02.393Z,33.45
2023-01-19T16:46:36.414Z,34.42
2023-01-19T16:49:21.722Z,33.47
2023-01-19T16:51:49.924Z,34.17
2023-01-19T16:54:19.609Z,35.67
2023-01-19T16:56:47.243Z,36.20
2023-01-19T16:59:15.756Z,36.42
2023-01-19T17:01:44.926Z,36.40
2023-01-19T17:04:13.123Z,35.50
2023-01-19T17:06:41.530Z,35.65
2023-01-19T17:09:12.348Z,36.88
2023-01-19T17:11:40.519Z,36.15
2023-01-19T17:14:13.237Z,37.22
2023-01-19T17:16:41.469Z,36.83
2023-01-19T17:19:09.230Z,37.70
2023-01-19T17:21:36.890Z,40.15
2023-01-19T17:24:07.611Z,39.72
2023-01-19T17:26:36.590Z,42.15
2023-01-19T17:29:07.241Z,41.53
2023-01-19T17:31:36.888Z,42.72
2023-01-19T17:34:04.884Z,42.05
2023-01-19T17:36:33.135Z,39.97
2023-01-19T17:39:05.906Z,46.50
2023-01-19T17:41:35.314Z,81.55
2023-01-19T17:44:04.572Z,67.47
2023-01-19T17:46:32.769Z,46.03
2023-01-19T17:49:02.147Z,43.03
2023-01-19T17:51:30.740Z,42.92
2023-01-19T17:53:58.727Z,42.80
2023-01-19T17:56:29.979Z,43.53
2023-01-19T17:58:58.445Z,42.83
2023-01-19T18:01:28.609Z,42.03
2023-01-19T18:03:56.477Z,44.22
2023-01-19T18:06:24.115Z,43.47
2023-01-19T18:08:51.472Z,44.53
2023-01-19T18:11:20.312Z,46.10
2023-01-19T18:13:49.135Z,47.78
2023-01-19T18:16:19.748Z,48.55
2023-01-19T18:18:46.737Z,48.25
2023-01-19T18:21:15.678Z,46.25
2023-01-19T18:23:46.103Z,46.47
2023-01-19T18:26:18.856Z,45.05
2023-01-19T18:28:46.335Z,47.03
2023-01-19T18:31:17.093Z,46.45
2023-01-19T18:33:44.542Z,47.40
2023-01-19T18:36:13.412Z,45.88
2023-01-19T18:38:40.641Z,48.03
2023-01-19T18:41:10.878Z,62.67
2023-01-19T18:43:38.457Z,61.13
2023-01-19T18:46:06.229Z,56.60
2023-01-19T18:48:33.591Z,59.40
2023-01-19T18:51:03.696Z,58.85
2023-01-19T18:53:32.103Z,53.75
2023-01-19T18:56:00.443Z,48.78
2023-01-19T18:58:29.851Z,50.28
2023-01-19T19:01:02.812Z,63.50
2023-01-19T19:03:32.371Z,62.85
2023-01-19T19:06:04.155Z,56.63
2023-01-19T19:08:35.207Z,51.97
2023-01-19T19:11:09.179Z,56.20
2023-01-19T19:13:42.717Z,55.63
2023-01-19T19:16:14.332Z,62.63
2023-01-19T19:18:42.622Z,53.40
2023-01-19T19:21:13.669Z,69.22
2023-01-19T19:23:42.892Z,72.47
2023-01-19T19:26:13.275Z,71.95
2023-01-19T19:28:41.636Z,65.38
2023-01-19T19:31:13.586Z,61.45
2023-01-19T19:36:08.597Z,67.57
2023-01-19T19:38:41.308Z,58.78
2023-01-19T19:41:10.084Z,54.88
2023-01-19T19:43:37.719Z,58.45
2023-01-19T19:46:07.462Z,60.03
2023-01-19T19:48:37.048Z,61.42
2023-01-19T19:51:27.283Z,61.63
2023-01-19T19:53:56.481Z,61.50
2023-01-19T19:56:24.842Z,60.75
2023-01-19T19:58:52.835Z,62.17
2023-01-19T20:01:25.942Z,62.00
2023-01-19T20:03:54.281Z,63.40
2023-01-19T20:06:24.117Z,63.70
2023-01-19T20:08:53.344Z,63.03
2023-01-19T20:11:23.933Z,65.10
2023-01-19T20:13:50.994Z,62.88
2023-01-19T20:16:21.205Z,64.47
2023-01-19T20:18:53.912Z,65.35
2023-01-19T20:21:27.372Z,66.43
2023-01-19T20:23:55.986Z,65.00
2023-01-19T20:26:25.688Z,65.30
2023-01-19T20:28:53.808Z,67.40
2023-01-19T20:31:26.735Z,67.28
2023-01-19T20:33:56.012Z,65.30
2023-01-19T20:36:24.541Z,65.75
2023-01-19T20:38:53.398Z,65.03
2023-01-19T20:41:21.358Z,66.55
2023-01-19T20:43:48.458Z,65.72
2023-01-19T20:46:15.754Z,72.03
2023-01-19T20:48:42.865Z,81.45
2023-01-19T20:51:12.865Z,47.70
2023-01-19T20:53:41.640Z,45.72
2023-01-19T20:56:23.932Z,45.53
2023-01-19T20:58:51.015Z,45.53
2023-01-19T21:01:20.804Z,45.92
2023-01-19T21:03:48.477Z,42.33
2023-01-19T21:06:16.066Z,39.92
2023-01-19T21:08:43.750Z,37.30
2023-01-19T21:11:11.591Z,38.95
2023-01-19T21:13:38.885Z,36.28
2023-01-19T21:16:06.313Z,36.42
2023-01-19T21:18:33.419Z,33.83
2023-01-19T21:21:00.534Z,32.40
2023-01-19T21:23:27.917Z,28.38
2023-01-19T21:25:57.533Z,28.23
2023-01-19T21:28:25.180Z,26.80
2023-01-19T21:30:53.482Z,26.85
2023-01-19T21:33:21.339Z,26.55
2023-01-19T21:35:52.321Z,25.33
2023-01-19T21:38:19.858Z,26.77
2023-01-19T21:40:46.936Z,26.30
2023-01-19T21:43:14.236Z,27.58
2023-01-19T21:45:43.195Z,26.80
2023-01-19T21:48:10.779Z,26.92
2023-01-19T21:50:37.838Z,25.75
2023-01-19T21:53:07.804Z,32.40
2023-01-19T21:55:35.294Z,27.98
2023-01-19T21:58:02.364Z,25.90
2023-01-19T22:00:32.763Z,27.38
2023-01-19T22:03:04.092Z,25.65
2023-01-19T22:10:31.246Z,21.00
2023-01-19T22:12:58.149Z,23.70
2023-01-19T22:15:25.253Z,24.77
2023-01-19T22:17:52.161Z,23.08
2023-01-19T22:20:19.223Z,22.48
2023-01-19T22:22:46.178Z,24.25
2023-01-19T22:25:15.307Z,22.35
2023-01-19T22:27:42.397Z,22.13
2023-01-19T22:30:10.052Z,22.33
2023-01-19T22:32:37.151Z,22.08
2023-01-19T22:35:04.403Z,20.20
2023-01-19T22:37:35.484Z,20.52
2023-01-19T22:40:03.964Z,20.90
2023-01-19T22:42:31.079Z,20.05
2023-01-19T22:44:58.035Z,20.45
2023-01-19T22:47:24.996Z,20.02
2023-01-19T22:49:51.923Z,19.48
2023-01-19T22:52:19.031Z,19.30
2023-01-19T22:54:45.994Z,19.77
2023-01-19T22:57:13.274Z,19.58
2023-01-19T22:59:40.333Z,19.27
2023-01-19T23:02:08.863Z,20.10
2023-01-19T23:04:35.960Z,22.13
2023-01-19T23:07:03.095Z,21.35
2023-01-19T23:09:30.208Z,21.65
2023-01-19T23:11:57.064Z,19.88
2023-01-19T23:14:24.085Z,20.77
2023-01-19T23:16:51.084Z,21.00
2023-01-19T23:19:18.517Z,21.13
2023-01-19T23:21:45.638Z,20.73
2023-01-19T23:24:12.650Z,20.83
2023-01-19T23:26:39.694Z,21.30
2023-01-19T23:29:13.089Z,21.75
2023-01-19T23:31:43.238Z,21.92
2023-01-19T23:34:12.192Z,23.95
2023-01-19T23:36:40.485Z,22.33
2023-01-19T23:39:14.072Z,22.55
2023-01-19T23:41:41.011Z,21.50
2023-01-19T23:44:08.366Z,22.17
2023-01-19T23:46:35.470Z,22.05
2023-01-19T23:49:02.608Z,23.05
2023-01-19T23:51:30.938Z,22.48
2023-01-19T23:53:58.842Z,22.75
2023-01-19T23:56:31.836Z,24.70
2023-01-19T23:59:01.537Z,23.65
